Time;durP1;ratioP1;P1;durP2;ratioP2;P2;SDS_P1;SDS_P2;PMS_P1;PMS_P2;Temp;Humidity;BMP_temperature;BMP_pressure;BME280_temperature;BME280_humidity;BME280_pressure;Samples;Min_cycle;Max_cycle;Signal;HPM_P1;HPM_P2
2023/01/08 00:01:51;;;;;;;20.93;3.13;;;9.10;99.90;;;;;;5054579;28;20540;-59
2023/01/08 00:04:17;;;;;;;24.87;3.43;;;9.10;99.90;;;;;;5057222;28;20269;-59
2023/01/08 00:06:43;;;;;;;26.27;3.90;;;9.10;99.90;;;;;;5066872;28;20173;-59
2023/01/08 00:09:10;;;;;;;17.83;2.63;;;9.20;99.90;;;;;;5074483;28;20256;-59
2023/01/08 00:11:36;;;;;;;23.77;3.13;;;9.10;99.90;;;;;;5055299;28;20208;-59
2023/01/08 00:14:02;;;;;;;23.83;4.07;;;9.10;99.90;;;;;;5054333;28;20182;-59
2023/01/08 00:16:28;;;;;;;22.93;2.50;;;9.10;99.90;;;;;;5054158;28;20908;-59
2023/01/08 00:18:53;;;;;;;28.47;3.60;;;9.20;99.90;;;;;;5054303;28;20173;-59
2023/01/08 00:21:19;;;;;;;22.67;4.00;;;9.20;99.90;;;;;;5052518;28;20305;-59
2023/01/08 00:23:45;;;;;;;28.17;3.13;;;9.20;99.90;;;;;;5061489;28;20636;-59
2023/01/08 00:26:12;;;;;;;24.50;4.10;;;9.20;99.90;;;;;;5062534;28;20185;-58
2023/01/08 00:28:38;;;;;;;30.00;3.53;;;9.10;99.90;;;;;;5065723;28;20203;-59
2023/01/08 00:31:09;;;;;;;24.20;3.03;;;9.10;99.90;;;;;;5070719;28;20180;-59
2023/01/08 00:33:35;;;;;;;22.33;3.27;;;9.00;99.90;;;;;;5072438;28;20201;-59
2023/01/08 00:36:07;;;;;;;32.73;3.33;;;9.10;99.90;;;;;;5070701;28;20230;-59
2023/01/08 00:38:33;;;;;;;29.10;3.57;;;9.10;99.90;;;;;;5053808;28;20189;-59
2023/01/08 00:40:59;;;;;;;25.20;3.00;;;9.20;99.90;;;;;;5053944;28;20176;-59
2023/01/08 00:43:24;;;;;;;24.30;3.23;;;9.10;99.90;;;;;;5073365;28;20518;-59
2023/01/08 00:45:52;;;;;;;37.33;4.40;;;9.00;99.90;;;;;;5063140;28;20513;-60
2023/01/08 00:48:21;;;;;;;37.03;3.40;;;9.00;99.90;;;;;;5060886;28;20189;-60
2023/01/08 00:50:47;;;;;;;21.93;3.10;;;9.00;99.90;;;;;;5057207;28;20185;-59
2023/01/08 00:53:13;;;;;;;28.30;3.83;;;9.00;99.90;;;;;;5071890;28;20658;-58
2023/01/08 00:55:38;;;;;;;25.53;3.83;;;9.00;99.90;;;;;;5054278;28;20173;-58
2023/01/08 00:58:04;;;;;;;27.27;3.27;;;9.10;99.90;;;;;;5069661;28;20334;-58
2023/01/08 01:00:29;;;;;;;31.47;3.63;;;9.10;99.90;;;;;;5057399;28;20221;-58
2023/01/08 01:02:55;;;;;;;25.93;3.90;;;9.10;99.90;;;;;;5064445;28;20225;-58
2023/01/08 01:05:21;;;;;;;19.80;3.57;;;9.10;99.90;;;;;;5073343;28;20696;-59
2023/01/08 01:07:46;;;;;;;22.53;3.00;;;9.10;99.90;;;;;;5073237;28;20245;-59
2023/01/08 01:10:16;;;;;;;31.97;3.27;;;9.10;99.90;;;;;;5073120;28;20188;-60
2023/01/08 01:12:42;;;;;;;23.10;3.57;;;9.10;99.90;;;;;;5073369;28;20169;-60
2023/01/08 01:15:10;;;;;;;23.03;3.67;;;9.20;99.90;;;;;;5073400;28;20248;-60
2023/01/08 01:17:41;;;;;;;22.03;3.20;;;9.10;99.90;;;;;;5073071;28;20758;-61
2023/01/08 01:20:09;;;;;;;27.47;3.00;;;9.20;99.90;;;;;;5073036;28;20177;-59
2023/01/08 01:22:35;;;;;;;18.77;2.57;;;;;;;;;;5070718;28;20184;-60
2023/01/08 01:25:01;;;;;;;29.87;4.03;;;9.20;99.90;;;;;;5072561;28;20649;-60
2023/01/08 01:27:27;;;;;;;16.77;2.73;;;9.30;99.90;;;;;;5071424;28;20181;-60
2023/01/08 01:29:53;;;;;;;18.80;2.77;;;9.20;99.90;;;;;;5072016;28;20192;-60
2023/01/08 01:32:19;;;;;;;20.67;2.43;;;9.30;99.90;;;;;;5071023;28;20670;-60
2023/01/08 01:34:44;;;;;;;31.10;3.30;;;9.20;99.90;;;;;;5072885;28;20237;-60
2023/01/08 01:37:13;;;;;;;29.73;3.43;;;9.40;99.90;;;;;;5070810;28;20591;-60
2023/01/08 01:39:42;;;;;;;19.17;2.67;;;9.20;99.90;;;;;;5072808;28;20208;-60
2023/01/08 01:42:38;;;;;;;21.73;3.80;;;9.10;99.90;;;;;;5061216;28;20217;-60
2023/01/08 01:45:02;;;;;;;31.53;3.17;;;9.10;99.90;;;;;;5052359;28;20670;-60
2023/01/08 01:47:36;;;;;;;20.40;3.30;;;9.10;99.90;;;;;;5066444;28;20227;-60
2023/01/08 01:50:08;;;;;;;26.60;3.10;;;9.00;99.90;;;;;;5055821;28;20195;-60
2023/01/08 01:52:38;;;;;;;21.43;2.83;;;9.00;99.90;;;;;;5070955;28;20176;-59
2023/01/08 01:55:06;;;;;;;18.73;2.43;;;9.00;99.90;;;;;;5072254;28;20236;-60
2023/01/08 01:57:32;;;;;;;30.17;3.30;;;8.90;99.90;;;;;;5058288;28;20235;-60
2023/01/08 02:00:00;;;;;;;17.37;2.60;;;8.90;99.90;;;;;;5051362;28;20177;-60
2023/01/08 02:02:26;;;;;;;25.00;3.00;;;8.80;99.90;;;;;;5057536;28;20227;-59
2023/01/08 02:04:52;;;;;;;28.70;3.13;;;8.80;99.90;;;;;;5072290;28;20169;-60
2023/01/08 02:07:37;;;;;;;14.90;2.03;;;8.80;99.90;;;;;;5072104;28;20234;-60
2023/01/08 02:10:11;;;;;;;10.47;2.17;;;7.60;99.90;;;;;;5072160;28;20177;-60
2023/01/08 02:12:50;;;;;;;26.27;3.07;;;8.70;99.90;;;;;;5072155;28;20169;-59
2023/01/08 02:15:41;;;;;;;10.80;1.57;;;8.70;99.90;;;;;;5071974;28;20176;-60
2023/01/08 02:18:18;;;;;;;20.13;2.83;;;8.80;99.90;;;;;;5070574;28;20191;-60
2023/01/08 02:20:59;;;;;;;21.93;2.87;;;9.10;99.90;;;;;;5067952;28;20265;-59
2023/01/08 02:23:54;;;;;;;17.03;2.00;;;8.70;99.90;;;;;;5070325;28;20176;-60
2023/01/08 02:26:25;;;;;;;21.80;3.23;;;8.70;99.90;;;;;;5063246;28;20191;-59
2023/01/08 02:28:57;;;;;;;24.17;2.80;;;8.70;99.90;;;;;;5071792;28;20168;-60
2023/01/08 02:31:25;;;;;;;22.20;2.53;;;8.70;99.90;;;;;;5057681;28;20181;-59
2023/01/08 02:33:51;;;;;;;19.50;2.53;;;8.70;99.90;;;;;;5071776;28;20165;-59
2023/01/08 02:36:29;;;;;;;14.00;2.50;;;8.80;99.90;;;;;;5062948;28;20239;-59
2023/01/08 02:39:01;;;;;;;18.60;2.40;;;8.70;99.90;;;;;;5051619;28;20177;-59
2023/01/08 02:42:11;;;;;;;10.27;1.67;;;8.70;99.90;;;;;;5058731;28;20266;-59
2023/01/08 02:44:58;;;;;;;19.63;1.80;;;8.80;99.90;;;;;;5071412;28;20191;-59
2023/01/08 02:47:38;;;;;;;14.60;2.23;;;8.80;99.90;;;;;;5056313;28;20203;-59
2023/01/08 02:50:23;;;;;;;2.73;0.30;;;9.00;99.90;;;;;;5067913;28;20241;-59
2023/01/08 02:52:56;;;;;;;19.37;1.90;;;8.80;99.90;;;;;;5052926;28;20268;-59
2023/01/08 02:55:24;;;;;;;19.60;2.63;;;8.80;99.90;;;;;;5063349;28;20239;-59
2023/01/08 02:57:50;;;;;;;19.47;2.27;;;8.80;99.90;;;;;;5054626;28;20213;-59
2023/01/08 03:00:17;;;;;;;20.37;2.67;;;8.70;99.90;;;;;;5065684;28;20256;-59
2023/01/08 03:02:44;;;;;;;12.37;1.60;;;8.70;99.90;;;;;;5067318;28;20172;-59
2023/01/08 03:05:22;;;;;;;9.43;1.27;;;9.40;99.90;;;;;;5064302;28;20227;-60
2023/01/08 03:07:49;;;;;;;7.17;1.23;;;8.70;99.90;;;;;;5052728;28;20187;-60
2023/01/08 03:10:15;;;;;;;10.17;1.83;;;8.80;99.90;;;;;;5059738;28;20172;-59
2023/01/08 03:12:54;;;;;;;7.43;1.20;;;8.70;99.90;;;;;;5071301;28;20173;-59
2023/01/08 03:15:30;;;;;;;10.23;1.23;;;8.70;99.90;;;;;;5069416;28;20164;-59
2023/01/08 03:18:00;;;;;;;2.50;0.77;;;8.90;99.90;;;;;;5070979;28;20270;-59
2023/01/08 03:20:27;;;;;;;5.67;0.60;;;8.70;99.90;;;;;;5070502;28;20161;-59
2023/01/08 03:22:55;;;;;;;7.97;1.20;;;8.60;99.90;;;;;;5069718;28;20176;-59
2023/01/08 03:25:23;;;;;;;12.17;1.43;;;8.60;99.90;;;;;;5067651;28;20200;-58
2023/01/08 03:27:54;;;;;;;7.00;1.20;;;8.60;99.90;;;;;;5070424;28;20172;-60
2023/01/08 03:30:22;;;;;;;10.73;1.27;;;8.50;99.90;;;;;;5070531;28;20172;-60
2023/01/08 03:32:49;;;;;;;1.47;0.37;;;8.50;99.90;;;;;;5070645;28;20176;-61
2023/01/08 03:35:20;;;;;;;7.03;1.10;;;9.40;99.90;;;;;;5070611;28;20298;-60
2023/01/08 03:37:53;;;;;;;7.43;1.13;;;8.50;99.90;;;;;;5070800;28;20200;-61
2023/01/08 03:40:23;;;;;;;7.87;1.30;;;8.40;99.90;;;;;;5063970;28;20177;-60
2023/01/08 03:42:49;;;;;;;11.67;1.60;;;8.40;99.90;;;;;;5060653;28;20654;-60
2023/01/08 03:45:15;;;;;;;11.50;1.20;;;8.40;99.90;;;;;;5069802;28;20224;-60
2023/01/08 03:47:42;;;;;;;7.20;1.23;;;8.30;99.90;;;;;;5052425;28;20250;-60
2023/01/08 03:50:19;;;;;;;12.03;1.47;;;8.20;99.90;;;;;;5051758;28;20566;-60
2023/01/08 03:52:44;;;;;;;10.23;1.10;;;8.10;99.90;;;;;;5068682;28;20156;-60
2023/01/08 03:55:10;;;;;;;12.43;1.23;;;8.40;99.90;;;;;;5070558;28;20906;-59
2023/01/08 03:57:35;;;;;;;8.90;1.17;;;8.30;99.90;;;;;;5057712;28;20248;-59
2023/01/08 04:00:01;;;;;;;6.80;1.10;;;8.30;99.90;;;;;;5051157;28;20181;-59
2023/01/08 04:02:27;;;;;;;7.00;0.97;;;8.20;99.90;;;;;;5050512;28;20177;-60
2023/01/08 04:04:52;;;;;;;9.57;1.20;;;8.30;99.90;;;;;;5050585;28;20209;-60
2023/01/08 04:07:18;;;;;;;11.57;1.10;;;8.30;99.90;;;;;;5057086;28;20173;-60
2023/01/08 04:09:43;;;;;;;10.13;1.00;;;8.30;99.90;;;;;;5056715;28;20234;-60
2023/01/08 04:12:09;;;;;;;7.43;0.90;;;8.30;99.90;;;;;;5050542;28;20551;-60
2023/01/08 04:14:35;;;;;;;7.80;1.00;;;8.40;99.90;;;;;;5055440;28;20668;-60
2023/01/08 04:17:00;;;;;;;8.67;0.93;;;8.30;99.90;;;;;;5053495;28;20220;-59
2023/01/08 04:19:26;;;;;;;5.13;0.83;;;8.40;99.90;;;;;;5065146;28;20176;-59
2023/01/08 04:21:52;;;;;;;7.93;1.00;;;8.40;99.90;;;;;;5063105;28;20480;-64
2023/01/08 04:24:18;;;;;;;7.20;1.07;;;8.40;99.90;;;;;;5065777;28;20174;-60
2023/01/08 04:26:45;;;;;;;11.23;1.20;;;8.50;99.90;;;;;;5068753;28;20275;-59
2023/01/08 04:29:12;;;;;;;5.83;1.20;;;8.50;99.90;;;;;;5068579;28;20176;-60
2023/01/08 04:31:38;;;;;;;5.97;1.10;;;8.50;99.90;;;;;;5070019;28;20177;-60
2023/01/08 04:34:03;;;;;;;9.00;1.30;;;8.50;99.90;;;;;;5057645;28;20193;-60
2023/01/08 04:36:29;;;;;;;7.67;1.27;;;8.50;99.90;;;;;;5062406;28;20227;-60
2023/01/08 04:38:54;;;;;;;9.53;1.73;;;8.50;99.90;;;;;;5050680;28;20189;-59
2023/01/08 04:41:20;;;;;;;6.90;1.30;;;8.50;99.90;;;;;;5056490;28;20539;-59
2023/01/08 04:43:45;;;;;;;8.60;0.90;;;8.50;99.90;;;;;;5054981;28;20227;-59
2023/01/08 04:46:11;;;;;;;7.20;1.10;;;8.70;99.90;;;;;;5058230;28;20230;-60
2023/01/08 04:48:37;;;;;;;8.07;1.40;;;8.50;99.90;;;;;;5073724;28;20200;-59
2023/01/08 04:51:03;;;;;;;11.80;1.40;;;8.50;99.90;;;;;;5057146;28;20177;-60
2023/01/08 04:53:32;;;;;;;7.53;0.77;;;8.40;99.90;;;;;;5053635;28;20275;-61
2023/01/08 04:56:05;;;;;;;8.07;1.07;;;8.10;99.90;;;;;;5064404;28;20581;-61
2023/01/08 04:58:32;;;;;;;10.33;1.10;;;8.10;99.90;;;;;;5062167;28;20267;-60
2023/01/08 05:00:58;;;;;;;8.17;0.90;;;8.00;99.90;;;;;;5071698;28;20189;-61
2023/01/08 05:03:23;;;;;;;7.10;1.00;;;8.00;99.90;;;;;;5057486;28;20188;-60
2023/01/08 05:05:49;;;;;;;9.67;1.00;;;7.90;99.90;;;;;;5053365;28;20209;-60
2023/01/08 05:08:14;;;;;;;6.63;0.97;;;7.40;99.90;;;;;;5066088;28;20671;-59
2023/01/08 05:10:41;;;;;;;7.93;1.00;;;7.80;99.90;;;;;;5071306;28;20259;-59
2023/01/08 05:13:06;;;;;;;7.43;1.80;;;7.50;99.90;;;;;;5053224;28;20178;-59
2023/01/08 05:15:32;;;;;;;4.83;1.10;;;8.00;99.90;;;;;;5053208;28;20166;-60
2023/01/08 05:18:03;;;;;;;11.53;1.47;;;7.70;99.90;;;;;;5058845;28;20172;-60
2023/01/08 05:20:28;;;;;;;11.13;1.50;;;7.60;99.90;;;;;;5066711;28;20249;-56
2023/01/08 05:22:55;;;;;;;8.37;1.03;;;7.60;99.90;;;;;;5071031;28;20267;-59
2023/01/08 05:25:21;;;;;;;10.20;1.13;;;7.50;99.90;;;;;;5072991;28;20664;-59
2023/01/08 05:27:47;;;;;;;4.20;0.63;;;7.60;99.90;;;;;;5071671;28;20666;-59
2023/01/08 05:30:12;;;;;;;7.03;1.20;;;7.60;99.90;;;;;;5073067;28;20177;-59
2023/01/08 05:32:38;;;;;;;13.07;1.67;;;7.60;99.90;;;;;;5055022;28;20176;-60
2023/01/08 05:35:05;;;;;;;8.33;1.23;;;7.60;99.90;;;;;;5072772;28;20167;-60
2023/01/08 05:37:33;;;;;;;7.43;1.20;;;7.60;99.90;;;;;;5072652;28;20219;-60
2023/01/08 05:39:58;;;;;;;7.17;0.87;;;7.60;99.90;;;;;;5072843;28;20182;-59
2023/01/08 05:42:24;;;;;;;9.13;1.00;;;7.60;99.90;;;;;;5072689;28;20177;-60
2023/01/08 05:44:50;;;;;;;9.70;1.10;;;7.60;99.90;;;;;;5072694;28;20204;-60
2023/01/08 05:47:15;;;;;;;7.43;1.10;;;7.50;99.90;;;;;;5072745;28;20267;-60
2023/01/08 05:49:41;;;;;;;3.77;0.90;;;;;;;;;;5072664;28;20594;-59
2023/01/08 05:52:07;;;;;;;7.30;1.00;;;7.40;99.90;;;;;;5069928;28;20225;-59
2023/01/08 05:54:32;;;;;;;4.23;0.80;;;7.50;99.90;;;;;;5067007;28;20177;-59
2023/01/08 05:56:58;;;;;;;7.97;0.90;;;7.30;99.90;;;;;;5059252;28;20213;-59
2023/01/08 05:59:23;;;;;;;7.57;1.30;;;7.30;99.90;;;;;;5052316;28;20223;-59
2023/01/08 06:01:49;;;;;;;8.33;1.10;;;7.40;99.90;;;;;;5060910;28;20201;-59
2023/01/08 06:04:15;;;;;;;7.73;0.90;;;7.20;99.90;;;;;;5068060;28;20179;-59
2023/01/08 06:06:40;;;;;;;3.83;1.00;;;7.20;99.90;;;;;;5052683;28;20212;-59
2023/01/08 06:09:06;;;;;;;8.23;1.07;;;7.10;99.90;;;;;;5055040;28;20180;-59
2023/01/08 06:11:31;;;;;;;4.43;0.80;;;7.10;99.90;;;;;;5065839;28;20188;-59
2023/01/08 06:13:57;;;;;;;7.07;0.93;;;7.20;99.90;;;;;;5061516;28;20175;-59
2023/01/08 06:16:23;;;;;;;9.00;1.37;;;7.20;99.90;;;;;;5062266;28;20278;-59
2023/01/08 06:18:48;;;;;;;5.57;0.80;;;7.10;99.90;;;;;;5051011;28;20207;-59
2023/01/08 06:21:14;;;;;;;5.47;0.80;;;7.10;99.90;;;;;;5067755;28;20208;-62
2023/01/08 06:23:40;;;;;;;6.53;0.87;;;7.00;99.90;;;;;;5053833;28;20627;-59
2023/01/08 06:26:05;;;;;;;8.10;0.80;;;7.00;99.90;;;;;;5069302;28;20184;-59
2023/01/08 06:28:32;;;;;;;9.73;1.27;;;7.10;99.90;;;;;;5069824;28;20177;-59
2023/01/08 06:30:58;;;;;;;8.97;1.13;;;7.00;99.90;;;;;;5058938;28;20226;-59
2023/01/08 06:33:24;;;;;;;5.10;0.80;;;7.00;99.90;;;;;;5062054;28;20181;-59
2023/01/08 06:35:50;;;;;;;9.53;1.40;;;7.10;99.90;;;;;;5056351;28;20223;-59
2023/01/08 06:38:18;;;;;;;8.13;1.03;;;7.10;99.90;;;;;;5071618;28;20184;-59
2023/01/08 06:40:44;;;;;;;9.47;1.30;;;7.20;99.90;;;;;;5067569;28;20200;-59
2023/01/08 06:43:09;;;;;;;16.23;1.30;;;7.10;99.90;;;;;;5051581;28;20181;-59
2023/01/08 06:45:35;;;;;;;5.80;1.00;;;7.30;99.90;;;;;;5067760;28;20230;-59
2023/01/08 06:48:02;;;;;;;11.80;1.37;;;7.30;99.90;;;;;;5071539;28;20208;-59
2023/01/08 06:50:28;;;;;;;8.27;1.40;;;7.40;99.90;;;;;;5069882;28;20187;-59
2023/01/08 06:52:55;;;;;;;13.47;1.73;;;7.40;99.90;;;;;;5053726;28;20189;-59
2023/01/08 06:55:23;;;;;;;9.80;1.37;;;7.40;99.90;;;;;;5059367;28;20176;-60
2023/01/08 06:57:53;;;;;;;14.13;1.73;;;7.30;99.90;;;;;;5071218;28;20215;-60
2023/01/08 07:00:21;;;;;;;6.00;1.33;;;7.20;99.90;;;;;;5069767;28;20173;-60
2023/01/08 07:02:46;;;;;;;13.50;1.30;;;7.20;99.90;;;;;;5055068;28;20181;-60
2023/01/08 07:05:12;;;;;;;6.97;1.20;;;7.00;99.90;;;;;;5051788;28;20260;-60
2023/01/08 07:07:37;;;;;;;12.77;1.30;;;7.10;99.90;;;;;;5062281;28;20227;-59
2023/01/08 07:10:03;;;;;;;10.33;1.60;;;7.10;99.90;;;;;;5059689;28;20655;-59
2023/01/08 07:12:29;;;;;;;14.30;1.57;;;7.10;99.90;;;;;;5063471;28;20896;-59
2023/01/08 07:14:55;;;;;;;17.37;2.37;;;7.20;99.90;;;;;;5070865;28;20202;-59
2023/01/08 07:17:20;;;;;;;21.97;3.20;;;7.30;99.90;;;;;;5071120;28;20827;-60
2023/01/08 07:19:46;;;;;;;19.13;1.80;;;7.40;99.90;;;;;;5060320;28;20180;-56
2023/01/08 07:22:11;;;;;;;14.10;2.00;;;7.50;99.90;;;;;;5050992;28;20184;-56
2023/01/08 07:24:37;;;;;;;17.60;2.30;;;7.50;99.90;;;;;;5060812;28;20282;-56
2023/01/08 07:27:03;;;;;;;19.20;2.30;;;7.60;99.90;;;;;;5067798;28;20275;-56
2023/01/08 07:29:28;;;;;;;16.90;2.07;;;7.70;99.90;;;;;;5050908;28;20628;-56
2023/01/08 07:31:54;;;;;;;14.43;2.00;;;7.80;99.90;;;;;;5050860;28;20169;-56
2023/01/08 07:34:19;;;;;;;22.70;2.00;;;7.80;99.90;;;;;;5050969;28;20746;-56
2023/01/08 07:36:45;;;;;;;17.03;1.83;;;8.10;99.90;;;;;;5050654;28;20229;-56
2023/01/08 07:39:11;;;;;;;20.07;2.20;;;8.00;99.90;;;;;;5050699;28;20560;-56
2023/01/08 07:41:36;;;;;;;19.77;2.47;;;8.00;99.90;;;;;;5050791;28;20173;-57
2023/01/08 07:44:02;;;;;;;28.40;2.53;;;8.00;99.90;;;;;;5052421;28;20252;-57
2023/01/08 07:46:27;;;;;;;16.83;2.30;;;8.00;99.90;;;;;;5051992;28;20578;-57
2023/01/08 07:48:54;;;;;;;19.53;2.30;;;8.20;99.90;;;;;;5070500;28;20187;-58
2023/01/08 07:51:20;;;;;;;14.83;2.40;;;;;;;;;;5065159;28;20230;-57
2023/01/08 07:53:46;;;;;;;16.37;1.90;;;8.10;99.90;;;;;;5060601;28;20180;-57
2023/01/08 07:56:11;;;;;;;14.10;2.10;;;8.00;99.90;;;;;;5070648;28;20738;-57
2023/01/08 07:58:37;;;;;;;15.93;2.57;;;8.00;99.90;;;;;;5070635;28;20647;-57
2023/01/08 08:01:05;;;;;;;16.43;2.17;;;7.90;99.90;;;;;;5070716;28;20176;-57
2023/01/08 08:03:31;;;;;;;11.03;1.63;;;8.00;99.90;;;;;;5087247;28;20190;-57
2023/01/08 08:05:59;;;;;;;14.03;1.73;;;8.10;99.90;;;;;;5090725;28;20534;-57
2023/01/08 08:08:24;;;;;;;13.23;1.73;;;8.20;99.90;;;;;;5082634;28;20181;-57
2023/01/08 08:10:50;;;;;;;9.73;1.27;;;8.40;99.90;;;;;;5070705;28;20264;-57
2023/01/08 08:13:15;;;;;;;11.43;1.57;;;8.50;99.90;;;;;;5067186;28;20552;-57
2023/01/08 08:15:41;;;;;;;13.37;2.73;;;8.50;99.90;;;;;;5066774;28;20248;-57
2023/01/08 08:18:07;;;;;;;15.30;2.30;;;8.50;99.90;;;;;;5050645;28;20185;-57
2023/01/08 08:20:33;;;;;;;13.33;2.40;;;8.60;99.90;;;;;;5054342;28;20279;-56
2023/01/08 08:23:06;;;;;;;16.17;1.43;;;8.70;99.90;;;;;;5062723;28;20271;-57
2023/01/08 08:25:32;;;;;;;9.87;1.70;;;8.70;99.90;;;;;;5069215;28;20185;-57
2023/01/08 08:27:59;;;;;;;16.63;2.90;;;8.70;99.90;;;;;;5054120;28;20311;-57
2023/01/08 08:30:28;;;;;;;24.43;2.63;;;8.80;99.90;;;;;;5054188;28;20252;-57
2023/01/08 08:32:56;;;;;;;11.87;1.87;;;8.70;99.90;;;;;;5054124;28;20250;-57
2023/01/08 08:35:22;;;;;;;16.63;2.40;;;8.70;99.90;;;;;;5056151;28;20169;-57
2023/01/08 08:37:47;;;;;;;15.17;2.07;;;8.80;99.90;;;;;;5073780;28;20697;-57
2023/01/08 08:40:13;;;;;;;18.23;1.97;;;8.80;99.90;;;;;;5074007;28;20169;-57
2023/01/08 08:42:39;;;;;;;18.90;2.50;;;8.90;99.90;;;;;;5073950;28;20170;-57
2023/01/08 08:45:05;;;;;;;13.20;1.53;;;9.00;99.90;;;;;;5059784;28;20177;-57
2023/01/08 08:47:30;;;;;;;11.57;2.27;;;9.00;99.90;;;;;;5053607;28;20260;-57
2023/01/08 08:49:56;;;;;;;23.20;2.33;;;9.00;99.90;;;;;;5053639;28;20193;-58
2023/01/08 08:52:22;;;;;;;9.57;2.33;;;9.00;99.90;;;;;;5053807;28;20677;-58
2023/01/08 08:54:47;;;;;;;17.33;2.10;;;9.00;99.90;;;;;;5053773;28;20174;-58
2023/01/08 08:57:13;;;;;;;15.03;2.17;;;9.10;99.90;;;;;;5062682;28;20565;-57
2023/01/08 08:59:38;;;;;;;22.47;2.73;;;9.10;99.90;;;;;;5053716;28;20180;-57
2023/01/08 09:02:04;;;;;;;17.00;2.40;;;9.10;99.90;;;;;;5053026;28;20655;-57
2023/01/08 09:04:32;;;;;;;20.87;2.77;;;9.20;99.90;;;;;;5046902;28;20193;-58
2023/01/08 09:06:58;;;;;;;19.37;2.53;;;9.20;99.90;;;;;;5053665;28;20222;-60
2023/01/08 09:09:23;;;;;;;15.53;2.07;;;9.30;99.90;;;;;;5053364;28;20570;-60
2023/01/08 09:11:49;;;;;;;12.00;2.47;;;9.30;99.90;;;;;;5053285;28;20168;-60
2023/01/08 09:14:15;;;;;;;26.20;2.53;;;9.30;99.90;;;;;;5053261;28;20177;-60
2023/01/08 09:16:40;;;;;;;15.80;2.13;;;9.40;99.90;;;;;;5054448;28;20205;-61
2023/01/08 09:19:06;;;;;;;12.73;1.93;;;9.40;99.90;;;;;;5061639;28;20512;-61
2023/01/08 09:21:32;;;;;;;15.47;2.07;;;9.40;99.90;;;;;;5073497;28;20266;-60
2023/01/08 09:23:58;;;;;;;16.47;2.13;;;9.50;99.90;;;;;;5073045;28;20647;-60
2023/01/08 09:26:23;;;;;;;12.97;1.90;;;9.50;99.90;;;;;;5060221;28;20204;-60
2023/01/08 09:28:49;;;;;;;20.33;2.47;;;9.70;99.90;;;;;;5066030;28;20226;-61
2023/01/08 09:31:14;;;;;;;20.47;2.73;;;9.50;99.90;;;;;;5072866;28;20628;-60
2023/01/08 09:33:40;;;;;;;13.20;1.90;;;9.60;99.90;;;;;;5072977;28;20230;-61
2023/01/08 09:36:10;;;;;;;13.37;1.67;;;9.60;99.90;;;;;;5071023;28;20316;-61
2023/01/08 09:38:36;;;;;;;20.87;1.97;;;9.60;99.90;;;;;;5072929;28;20177;-60
2023/01/08 09:41:09;;;;;;;7.73;1.33;;;9.60;99.90;;;;;;5072846;28;20188;-60
2023/01/08 09:43:38;;;;;;;10.33;1.67;;;9.70;99.90;;;;;;5063151;28;20639;-60
2023/01/08 09:46:05;;;;;;;12.80;1.93;;;9.70;99.90;;;;;;5067645;28;20593;-61
2023/01/08 09:48:36;;;;;;;11.03;2.03;;;9.80;99.90;;;;;;5070342;28;20260;-61
2023/01/08 09:51:02;;;;;;;11.87;1.53;;;9.90;99.90;;;;;;5052639;28;20169;-60
2023/01/08 09:53:28;;;;;;;12.17;2.13;;;9.80;99.90;;;;;;5057521;28;20212;-61
2023/01/08 09:56:10;;;;;;;6.17;1.37;;;9.80;99.90;;;;;;5072398;28;20180;-60
2023/01/08 09:58:43;;;;;;;5.20;0.57;;;9.90;99.90;;;;;;5069201;28;20177;-60
2023/01/08 10:01:12;;;;;;;9.37;1.10;;;10.00;99.90;;;;;;5063646;28;20189;-58
2023/01/08 10:03:42;;;;;;;9.03;1.00;;;10.20;99.90;;;;;;5059253;28;20212;-61
2023/01/08 10:06:10;;;;;;;7.90;1.33;;;10.10;99.90;;;;;;5065580;28;20176;-63
2023/01/08 10:08:36;;;;;;;6.70;1.07;;;9.80;99.90;;;;;;5054902;28;20188;-61
2023/01/08 10:11:03;;;;;;;3.90;1.00;;;9.40;99.90;;;;;;5070198;28;20184;-61
2023/01/08 10:13:30;;;;;;;3.53;0.70;;;9.20;99.90;;;;;;5072171;28;20539;-61
2023/01/08 10:15:55;;;;;;;5.57;0.70;;;9.70;99.90;;;;;;5071762;28;20230;-61
2023/01/08 10:18:23;;;;;;;4.23;0.97;;;8.70;99.90;;;;;;5071403;28;20184;-60
2023/01/08 10:20:48;;;;;;;5.10;1.03;;;8.90;99.90;;;;;;5071841;28;20253;-61
2023/01/08 10:23:17;;;;;;;12.10;1.50;;;8.90;99.90;;;;;;5071753;28;20693;-60
2023/01/08 10:25:47;;;;;;;10.27;1.27;;;8.90;99.90;;;;;;5071974;28;20196;-60
2023/01/08 10:28:19;;;;;;;5.50;0.90;;;9.00;99.90;;;;;;5071993;28;20191;-61
2023/01/08 10:30:45;;;;;;;8.20;1.60;;;9.00;99.90;;;;;;5071851;28;20188;-60
2023/01/08 10:33:25;;;;;;;11.57;1.13;;;9.20;99.90;;;;;;5066280;28;20169;-60
2023/01/08 10:36:01;;;;;;;11.37;1.60;;;9.40;99.90;;;;;;5071787;28;20220;-59
2023/01/08 10:38:34;;;;;;;8.40;1.10;;;9.50;99.90;;;;;;5073807;28;20192;-60
2023/01/08 10:41:04;;;;;;;9.33;1.13;;;9.70;99.90;;;;;;5052723;28;20181;-60
2023/01/08 10:43:47;;;;;;;5.60;1.00;;;9.80;99.90;;;;;;5051698;28;20173;-61
2023/01/08 10:46:37;;;;;;;4.17;0.93;;;9.70;99.90;;;;;;5052126;28;20238;-61
2023/01/08 10:49:05;;;;;;;9.03;1.20;;;9.70;99.90;;;;;;5053114;28;20568;-61
2023/01/08 10:51:31;;;;;;;7.20;0.90;;;9.30;99.90;;;;;;5071012;28;20176;-61
2023/01/08 10:54:00;;;;;;;5.30;0.90;;;9.40;99.90;;;;;;5057154;28;20576;-61
2023/01/08 10:56:39;;;;;;;4.37;1.13;;;9.30;99.90;;;;;;5051305;28;20229;-61
2023/01/08 10:59:04;;;;;;;4.33;1.03;;;9.30;99.90;;;;;;5051366;28;20219;-60
2023/01/08 11:01:31;;;;;;;4.27;0.77;;;9.10;99.90;;;;;;5051636;28;20173;-62
2023/01/08 11:04:03;;;;;;;5.40;0.70;;;9.20;99.90;;;;;;5050328;28;20295;-57
2023/01/08 11:06:38;;;;;;;4.90;0.27;;;8.80;99.90;;;;;;5049252;28;20639;-57
2023/01/08 11:09:15;;;;;;;2.53;0.70;;;8.90;99.90;;;;;;5044942;28;20401;-57
2023/01/08 11:11:41;;;;;;;3.40;0.40;;;8.80;99.90;;;;;;5069309;28;20176;-57
2023/01/08 11:14:39;;;;;;;2.60;0.57;;;8.80;99.90;;;;;;5070597;28;20713;-57
2023/01/08 11:17:09;;;;;;;6.83;0.90;;;8.70;99.90;;;;;;5070604;28;20216;-58
2023/01/08 11:19:35;;;;;;;3.90;0.40;;;8.70;99.90;;;;;;5060008;28;20200;-56
2023/01/08 11:22:03;;;;;;;1.23;0.40;;;8.70;99.90;;;;;;5050878;28;20640;-57
2023/01/08 11:24:31;;;;;;;2.67;0.30;;;8.70;99.90;;;;;;5053578;28;20245;-58
2023/01/08 11:27:08;;;;;;;2.93;0.40;;;8.60;99.90;;;;;;5062907;28;20260;-57
2023/01/08 11:29:43;;;;;;;3.77;0.50;;;8.70;99.90;;;;;;5072207;28;20178;-57
2023/01/08 11:32:37;;;;;;;2.67;0.50;;;8.80;99.90;;;;;;5054021;28;20620;-57
2023/01/08 11:35:12;;;;;;;0.77;0.30;;;8.90;99.90;;;;;;5067475;28;20168;-57
2023/01/08 11:37:42;;;;;;;4.07;0.97;;;9.70;99.90;;;;;;5070555;28;20208;-57
2023/01/08 11:40:14;;;;;;;3.30;1.50;;;9.80;99.90;;;;;;5070844;28;20169;-57
2023/01/08 11:42:56;;;;;;;1.20;0.50;;;10.10;99.90;;;;;;5070876;28;20180;-56
2023/01/08 11:45:25;;;;;;;18.87;8.30;;;10.10;99.90;;;;;;5085483;28;20202;-57
2023/01/08 11:48:25;;;;;;;6.77;2.07;;;10.10;99.90;;;;;;5072407;28;20168;-56
2023/01/08 11:51:15;;;;;;;7.00;2.60;;;10.10;99.90;;;;;;5063619;28;20208;-61
2023/01/08 11:54:03;;;;;;;6.27;2.37;;;9.40;99.90;;;;;;5072099;28;20221;-61
2023/01/08 11:56:34;;;;;;;1.80;1.00;;;9.40;99.90;;;;;;5071490;28;20243;-61
2023/01/08 11:59:32;;;;;;;2.50;0.33;;;9.30;99.90;;;;;;5074802;28;20172;-61
2023/01/08 12:02:24;;;;;;;2.27;0.60;;;9.10;99.90;;;;;;5074793;28;20173;-61
2023/01/08 12:05:24;;;;;;;2.97;0.57;;;8.90;99.90;;;;;;5066912;28;20921;-60
2023/01/08 12:08:02;;;;;;;8.03;1.27;;;9.00;99.90;;;;;;5069135;28;20193;-60
2023/01/08 12:10:47;;;;;;;6.80;1.97;;;9.00;99.90;;;;;;5074289;28;20208;-60
2023/01/08 12:13:42;;;;;;;10.47;4.23;;;9.00;99.90;;;;;;5054597;28;20173;-60
2023/01/08 12:16:38;;;;;;;19.93;6.17;;;9.10;99.90;;;;;;5054065;28;20659;-59
2023/01/08 12:19:16;;;;;;;5.73;0.80;;;9.10;99.90;;;;;;5046743;28;20264;-60
2023/01/08 12:22:12;;;;;;;8.63;1.77;;;9.10;99.90;;;;;;5066796;28;20665;-60
2023/01/08 12:24:56;;;;;;;3.93;1.93;;;9.20;99.90;;;;;;5070010;28;20185;-61
2023/01/08 12:27:40;;;;;;;6.17;1.10;;;9.30;99.90;;;;;;5056171;28;20223;-60
2023/01/08 12:30:08;;;;;;;3.80;1.00;;;9.30;99.90;;;;;;5054038;28;20184;-60
2023/01/08 12:32:46;;;;;;;4.60;1.00;;;9.30;99.90;;;;;;5053588;28;20173;-60
2023/01/08 12:35:40;;;;;;;3.33;1.20;;;9.40;99.90;;;;;;5053521;28;20177;-61
2023/01/08 12:38:11;;;;;;;6.23;1.30;;;9.30;99.90;;;;;;5051414;28;20225;-61
2023/01/08 12:40:54;;;;;;;4.53;0.97;;;9.40;99.90;;;;;;5058441;28;20180;-60
2023/01/08 12:43:49;;;;;;;2.63;0.97;;;9.40;99.90;;;;;;5066938;28;20187;-60
2023/01/08 12:46:15;;;;;;;2.33;0.87;;;9.50;99.90;;;;;;5050075;28;20170;-61
2023/01/08 12:48:44;;;;;;;3.87;0.70;;;9.40;99.90;;;;;;5049599;28;20326;-61
2023/01/08 12:51:32;;;;;;;7.37;2.70;;;9.50;99.90;;;;;;5067167;28;20204;-61
2023/01/08 12:54:19;;;;;;;5.20;1.10;;;9.30;99.90;;;;;;5052360;28;20188;-61
2023/01/08 12:56:45;;;;;;;3.50;0.60;;;9.60;99.90;;;;;;5063816;28;20563;-61
2023/01/08 12:59:36;;;;;;;8.10;2.53;;;9.70;99.90;;;;;;5073470;28;20172;-61
2023/01/08 13:02:22;;;;;;;43.87;11.60;;;9.90;99.90;;;;;;5071488;28;20263;-59
2023/01/08 13:04:48;;;;;;;27.57;8.97;;;12.20;99.90;;;;;;5072686;28;20177;-60
2023/01/08 13:07:16;;;;;;;6.57;2.63;;;15.20;99.90;;;;;;5071748;28;20580;-60